sensor_id;sensor_type;location;lat;lon;timestamp;temperature;humidity
13440;DHT22;6792;57.698;11.946;2023-06-10T00:00:51;23.80;25.70
13440;DHT22;6792;57.698;11.946;2023-06-10T00:03:20;23.80;25.70
13440;DHT22;6792;57.698;11.946;2023-06-10T00:05:51;23.80;25.80
13440;DHT22;6792;57.698;11.946;2023-06-10T00:08:21;23.70;25.70
13440;DHT22;6792;57.698;11.946;2023-06-10T00:10:50;23.70;25.80
13440;DHT22;6792;57.698;11.946;2023-06-10T00:13:19;23.70;25.70
13440;DHT22;6792;57.698;11.946;2023-06-10T00:15:48;23.60;25.70
13440;DHT22;6792;57.698;11.946;2023-06-10T00:18:17;23.60;25.70
13440;DHT22;6792;57.698;11.946;2023-06-10T00:20:48;23.50;25.70
13440;DHT22;6792;57.698;11.946;2023-06-10T00:23:19;23.50;25.70
13440;DHT22;6792;57.698;11.946;2023-06-10T00:25:48;23.50;25.70
13440;DHT22;6792;57.698;11.946;2023-06-10T00:28:17;23.40;25.60
13440;DHT22;6792;57.698;11.946;2023-06-10T00:30:47;23.30;25.60
13440;DHT22;6792;57.698;11.946;2023-06-10T00:33:18;23.30;25.50
13440;DHT22;6792;57.698;11.946;2023-06-10T00:35:48;23.20;25.50
13440;DHT22;6792;57.698;11.946;2023-06-10T00:38:20;23.20;25.50
13440;DHT22;6792;57.698;11.946;2023-06-10T00:40:49;23.10;25.10
13440;DHT22;6792;57.698;11.946;2023-06-10T00:43:18;23.10;25.00
13440;DHT22;6792;57.698;11.946;2023-06-10T00:45:47;23.10;25.50
13440;DHT22;6792;57.698;11.946;2023-06-10T00:48:17;23.00;25.00
13440;DHT22;6792;57.698;11.946;2023-06-10T00:50:49;23.00;24.90
13440;DHT22;6792;57.698;11.946;2023-06-10T00:53:19;23.00;25.40
13440;DHT22;6792;57.698;11.946;2023-06-10T00:55:49;22.90;25.40
13440;DHT22;6792;57.698;11.946;2023-06-10T00:58:18;22.90;25.40
13440;DHT22;6792;57.698;11.946;2023-06-10T01:00:47;22.90;25.30
13440;DHT22;6792;57.698;11.946;2023-06-10T01:03:17;22.90;25.30
13440;DHT22;6792;57.698;11.946;2023-06-10T01:05:55;22.80;25.30
13440;DHT22;6792;57.698;11.946;2023-06-10T01:08:27;22.90;25.30
13440;DHT22;6792;57.698;11.946;2023-06-10T01:11:00;22.90;25.40
13440;DHT22;6792;57.698;11.946;2023-06-10T01:13:30;22.80;25.30
13440;DHT22;6792;57.698;11.946;2023-06-10T01:16:00;22.80;25.30
13440;DHT22;6792;57.698;11.946;2023-06-10T01:18:31;22.80;25.30
13440;DHT22;6792;57.698;11.946;2023-06-10T01:21:01;22.80;25.30
13440;DHT22;6792;57.698;11.946;2023-06-10T01:23:31;22.80;25.20
13440;DHT22;6792;57.698;11.946;2023-06-10T01:26:07;22.80;25.30
13440;DHT22;6792;57.698;11.946;2023-06-10T01:28:40;22.80;25.30
13440;DHT22;6792;57.698;11.946;2023-06-10T01:31:13;22.70;25.30
13440;DHT22;6792;57.698;11.946;2023-06-10T01:33:51;22.60;25.30
13440;DHT22;6792;57.698;11.946;2023-06-10T01:36:22;22.60;25.40
13440;DHT22;6792;57.698;11.946;2023-06-10T01:38:54;22.50;24.90
13440;DHT22;6792;57.698;11.946;2023-06-10T01:41:24;22.50;25.40
13440;DHT22;6792;57.698;11.946;2023-06-10T01:43:55;22.50;25.50
13440;DHT22;6792;57.698;11.946;2023-06-10T01:46:24;22.50;25.70
13440;DHT22;6792;57.698;11.946;2023-06-10T01:48:53;22.40;25.50
13440;DHT22;6792;57.698;11.946;2023-06-10T01:51:23;22.30;25.50
13440;DHT22;6792;57.698;11.946;2023-06-10T01:53:52;22.30;25.60
13440;DHT22;6792;57.698;11.946;2023-06-10T01:56:21;22.20;25.60
13440;DHT22;6792;57.698;11.946;2023-06-10T01:58:50;22.20;25.60
13440;DHT22;6792;57.698;11.946;2023-06-10T02:01:21;22.20;25.70
13440;DHT22;6792;57.698;11.946;2023-06-10T02:03:50;22.10;25.70
13440;DHT22;6792;57.698;11.946;2023-06-10T02:06:19;22.00;25.70
13440;DHT22;6792;57.698;11.946;2023-06-10T02:08:49;22.00;25.70
13440;DHT22;6792;57.698;11.946;2023-06-10T02:11:18;22.00;25.70
13440;DHT22;6792;57.698;11.946;2023-06-10T02:13:47;21.90;25.80
13440;DHT22;6792;57.698;11.946;2023-06-10T02:16:18;21.90;25.80
13440;DHT22;6792;57.698;11.946;2023-06-10T02:18:49;21.90;25.80
13440;DHT22;6792;57.698;11.946;2023-06-10T02:21:18;21.90;25.90
13440;DHT22;6792;57.698;11.946;2023-06-10T02:23:50;21.80;25.30
13440;DHT22;6792;57.698;11.946;2023-06-10T02:26:19;21.80;25.80
13440;DHT22;6792;57.698;11.946;2023-06-10T02:28:48;21.70;25.80
13440;DHT22;6792;57.698;11.946;2023-06-10T02:31:18;21.70;25.90
13440;DHT22;6792;57.698;11.946;2023-06-10T02:33:47;21.60;25.90
13440;DHT22;6792;57.698;11.946;2023-06-10T02:36:17;21.60;25.50
13440;DHT22;6792;57.698;11.946;2023-06-10T02:38:46;21.60;26.00
13440;DHT22;6792;57.698;11.946;2023-06-10T02:41:17;21.60;26.00
13440;DHT22;6792;57.698;11.946;2023-06-10T02:43:47;21.50;26.00
13440;DHT22;6792;57.698;11.946;2023-06-10T02:46:18;21.50;26.10
13440;DHT22;6792;57.698;11.946;2023-06-10T02:48:48;21.40;26.10
13440;DHT22;6792;57.698;11.946;2023-06-10T02:51:18;21.40;26.20
13440;DHT22;6792;57.698;11.946;2023-06-10T02:53:48;21.40;26.30
13440;DHT22;6792;57.698;11.946;2023-06-10T02:56:18;21.40;26.30
13440;DHT22;6792;57.698;11.946;2023-06-10T02:58:47;21.30;26.30
13440;DHT22;6792;57.698;11.946;2023-06-10T03:01:18;21.30;26.40
13440;DHT22;6792;57.698;11.946;2023-06-10T03:03:47;21.20;26.40
13440;DHT22;6792;57.698;11.946;2023-06-10T03:06:18;21.20;26.50
13440;DHT22;6792;57.698;11.946;2023-06-10T03:08:50;21.20;26.50
13440;DHT22;6792;57.698;11.946;2023-06-10T03:11:19;21.10;26.10
13440;DHT22;6792;57.698;11.946;2023-06-10T03:13:48;21.10;26.60
13440;DHT22;6792;57.698;11.946;2023-06-10T03:16:18;21.10;26.70
13440;DHT22;6792;57.698;11.946;2023-06-10T03:18:48;21.10;26.80
13440;DHT22;6792;57.698;11.946;2023-06-10T03:21:17;21.00;26.70
13440;DHT22;6792;57.698;11.946;2023-06-10T03:23:50;21.10;26.80
13440;DHT22;6792;57.698;11.946;2023-06-10T03:26:19;21.10;26.40
13440;DHT22;6792;57.698;11.946;2023-06-10T03:28:49;21.10;26.90
13440;DHT22;6792;57.698;11.946;2023-06-10T03:31:18;21.00;26.80
13440;DHT22;6792;57.698;11.946;2023-06-10T03:33:48;21.00;26.90
13440;DHT22;6792;57.698;11.946;2023-06-10T03:36:17;21.00;27.00
13440;DHT22;6792;57.698;11.946;2023-06-10T03:38:48;21.00;27.00
13440;DHT22;6792;57.698;11.946;2023-06-10T03:41:19;21.00;27.10
13440;DHT22;6792;57.698;11.946;2023-06-10T03:43:49;20.90;27.10
13440;DHT22;6792;57.698;11.946;2023-06-10T03:46:18;20.90;26.80
13440;DHT22;6792;57.698;11.946;2023-06-10T03:48:47;20.90;27.30
13440;DHT22;6792;57.698;11.946;2023-06-10T03:51:19;20.90;27.40
13440;DHT22;6792;57.698;11.946;2023-06-10T03:53:49;20.90;27.50
13440;DHT22;6792;57.698;11.946;2023-06-10T03:56:18;20.90;27.50
13440;DHT22;6792;57.698;11.946;2023-06-10T03:58:50;20.80;27.50
13440;DHT22;6792;57.698;11.946;2023-06-10T04:01:19;20.80;27.20
13440;DHT22;6792;57.698;11.946;2023-06-10T04:03:48;20.80;27.20
13440;DHT22;6792;57.698;11.946;2023-06-10T04:06:19;20.80;27.80
13440;DHT22;6792;57.698;11.946;2023-06-10T04:08:49;20.70;27.90
13440;DHT22;6792;57.698;11.946;2023-06-10T04:11:19;20.70;27.90
13440;DHT22;6792;57.698;11.946;2023-06-10T04:13:49;20.70;27.90
13440;DHT22;6792;57.698;11.946;2023-06-10T04:16:18;20.70;28.50
13440;DHT22;6792;57.698;11.946;2023-06-10T04:18:49;20.70;28.10
13440;DHT22;6792;57.698;11.946;2023-06-10T04:21:18;20.70;28.20
13440;DHT22;6792;57.698;11.946;2023-06-10T04:23:47;20.70;28.30
13440;DHT22;6792;57.698;11.946;2023-06-10T04:26:17;20.60;28.40
13440;DHT22;6792;57.698;11.946;2023-06-10T04:28:47;20.70;29.00
13440;DHT22;6792;57.698;11.946;2023-06-10T04:31:19;20.70;28.60
13440;DHT22;6792;57.698;11.946;2023-06-10T04:33:48;20.70;28.60
13440;DHT22;6792;57.698;11.946;2023-06-10T04:36:17;20.70;28.70
13440;DHT22;6792;57.698;11.946;2023-06-10T04:38:48;20.80;28.70
13440;DHT22;6792;57.698;11.946;2023-06-10T04:41:19;20.70;28.80
13440;DHT22;6792;57.698;11.946;2023-06-10T04:43:50;20.80;28.90
13440;DHT22;6792;57.698;11.946;2023-06-10T04:46:19;20.80;28.90
13440;DHT22;6792;57.698;11.946;2023-06-10T04:48:48;20.80;28.90
13440;DHT22;6792;57.698;11.946;2023-06-10T04:51:17;20.80;29.00
13440;DHT22;6792;57.698;11.946;2023-06-10T04:53:46;20.70;29.00
13440;DHT22;6792;57.698;11.946;2023-06-10T04:56:16;20.80;29.10
13440;DHT22;6792;57.698;11.946;2023-06-10T04:58:47;20.80;29.20
13440;DHT22;6792;57.698;11.946;2023-06-10T05:01:16;20.80;29.20
13440;DHT22;6792;57.698;11.946;2023-06-10T05:03:47;20.80;29.10
13440;DHT22;6792;57.698;11.946;2023-06-10T05:06:19;20.80;29.10
13440;DHT22;6792;57.698;11.946;2023-06-10T05:08:48;20.80;29.20
13440;DHT22;6792;57.698;11.946;2023-06-10T05:11:17;20.80;29.20
13440;DHT22;6792;57.698;11.946;2023-06-10T05:13:47;20.90;29.10
13440;DHT22;6792;57.698;11.946;2023-06-10T05:16:17;20.90;29.10
13440;DHT22;6792;57.698;11.946;2023-06-10T05:18:47;20.90;29.00
13440;DHT22;6792;57.698;11.946;2023-06-10T05:21:16;20.90;29.00
13440;DHT22;6792;57.698;11.946;2023-06-10T05:23:47;20.90;29.00
13440;DHT22;6792;57.698;11.946;2023-06-10T05:26:17;21.00;29.10
13440;DHT22;6792;57.698;11.946;2023-06-10T05:28:52;21.00;29.00
13440;DHT22;6792;57.698;11.946;2023-06-10T05:31:22;21.00;29.00
13440;DHT22;6792;57.698;11.946;2023-06-10T05:33:51;21.10;29.00
13440;DHT22;6792;57.698;11.946;2023-06-10T05:36:20;21.10;28.90
13440;DHT22;6792;57.698;11.946;2023-06-10T05:38:49;21.10;28.90
13440;DHT22;6792;57.698;11.946;2023-06-10T05:41:18;21.20;29.40
13440;DHT22;6792;57.698;11.946;2023-06-10T05:43:48;21.20;28.90
13440;DHT22;6792;57.698;11.946;2023-06-10T05:46:17;21.20;28.90
13440;DHT22;6792;57.698;11.946;2023-06-10T05:48:47;21.20;28.90
13440;DHT22;6792;57.698;11.946;2023-06-10T05:51:17;21.30;29.00
13440;DHT22;6792;57.698;11.946;2023-06-10T05:53:48;21.30;29.00
13440;DHT22;6792;57.698;11.946;2023-06-10T05:56:17;21.30;28.90
13440;DHT22;6792;57.698;11.946;2023-06-10T05:58:47;21.30;29.00
13440;DHT22;6792;57.698;11.946;2023-06-10T06:01:16;21.30;29.00
13440;DHT22;6792;57.698;11.946;2023-06-10T06:03:47;21.40;29.10
13440;DHT22;6792;57.698;11.946;2023-06-10T06:06:17;21.40;29.10
13440;DHT22;6792;57.698;11.946;2023-06-10T06:08:47;21.40;29.10
13440;DHT22;6792;57.698;11.946;2023-06-10T06:11:17;21.40;29.70
13440;DHT22;6792;57.698;11.946;2023-06-10T06:13:47;21.40;29.20
13440;DHT22;6792;57.698;11.946;2023-06-10T06:16:19;21.50;29.20
13440;DHT22;6792;57.698;11.946;2023-06-10T06:18:49;21.50;29.20
13440;DHT22;6792;57.698;11.946;2023-06-10T06:21:18;21.60;29.30
13440;DHT22;6792;57.698;11.946;2023-06-10T06:23:47;21.70;29.30
13440;DHT22;6792;57.698;11.946;2023-06-10T06:26:19;21.70;29.30
13440;DHT22;6792;57.698;11.946;2023-06-10T06:28:48;21.70;29.30
13440;DHT22;6792;57.698;11.946;2023-06-10T06:31:17;21.70;29.40
13440;DHT22;6792;57.698;11.946;2023-06-10T06:33:47;21.70;29.40
13440;DHT22;6792;57.698;11.946;2023-06-10T06:36:16;21.80;29.40
13440;DHT22;6792;57.698;11.946;2023-06-10T06:38:47;21.80;29.40
13440;DHT22;6792;57.698;11.946;2023-06-10T06:41:16;21.80;29.00
13440;DHT22;6792;57.698;11.946;2023-06-10T06:43:45;22.00;29.40
13440;DHT22;6792;57.698;11.946;2023-06-10T06:46:17;22.00;29.90
13440;DHT22;6792;57.698;11.946;2023-06-10T06:48:48;22.10;29.40
13440;DHT22;6792;57.698;11.946;2023-06-10T06:51:17;22.10;29.50
13440;DHT22;6792;57.698;11.946;2023-06-10T06:53:49;22.20;29.40
13440;DHT22;6792;57.698;11.946;2023-06-10T06:56:19;22.30;29.40
13440;DHT22;6792;57.698;11.946;2023-06-10T06:58:49;22.30;29.40
13440;DHT22;6792;57.698;11.946;2023-06-10T07:01:20;22.40;29.40
13440;DHT22;6792;57.698;11.946;2023-06-10T07:03:50;22.50;29.40
13440;DHT22;6792;57.698;11.946;2023-06-10T07:06:19;22.60;29.40
13440;DHT22;6792;57.698;11.946;2023-06-10T07:08:49;22.60;29.40
13440;DHT22;6792;57.698;11.946;2023-06-10T07:11:19;22.70;29.40
13440;DHT22;6792;57.698;11.946;2023-06-10T07:13:48;22.80;29.30
13440;DHT22;6792;57.698;11.946;2023-06-10T07:16:17;22.90;29.30
13440;DHT22;6792;57.698;11.946;2023-06-10T07:18:48;22.90;29.20
13440;DHT22;6792;57.698;11.946;2023-06-10T07:21:17;23.00;29.20
13440;DHT22;6792;57.698;11.946;2023-06-10T07:23:49;23.10;29.20
13440;DHT22;6792;57.698;11.946;2023-06-10T07:26:21;23.10;29.10
13440;DHT22;6792;57.698;11.946;2023-06-10T07:28:50;23.20;28.70
13440;DHT22;6792;57.698;11.946;2023-06-10T07:31:20;23.20;29.50
13440;DHT22;6792;57.698;11.946;2023-06-10T07:33:49;23.30;28.90
13440;DHT22;6792;57.698;11.946;2023-06-10T07:36:18;23.40;28.90
13440;DHT22;6792;57.698;11.946;2023-06-10T07:38:47;23.40;28.80
13440;DHT22;6792;57.698;11.946;2023-06-10T07:41:20;23.60;28.80
13440;DHT22;6792;57.698;11.946;2023-06-10T07:43:49;23.60;28.70
13440;DHT22;6792;57.698;11.946;2023-06-10T07:46:20;23.70;28.60
13440;DHT22;6792;57.698;11.946;2023-06-10T07:48:50;23.70;28.50
13440;DHT22;6792;57.698;11.946;2023-06-10T07:51:20;23.80;28.50
13440;DHT22;6792;57.698;11.946;2023-06-10T07:53:50;23.80;28.40
13440;DHT22;6792;57.698;11.946;2023-06-10T07:56:19;23.90;28.40
13440;DHT22;6792;57.698;11.946;2023-06-10T07:58:49;23.90;28.30
13440;DHT22;6792;57.698;11.946;2023-06-10T08:01:18;23.90;28.20
13440;DHT22;6792;57.698;11.946;2023-06-10T08:03:47;24.00;28.10
13440;DHT22;6792;57.698;11.946;2023-06-10T08:06:17;24.00;28.10
13440;DHT22;6792;57.698;11.946;2023-06-10T08:08:47;24.00;27.90
13440;DHT22;6792;57.698;11.946;2023-06-10T08:11:17;24.10;27.40
13440;DHT22;6792;57.698;11.946;2023-06-10T08:13:46;24.20;27.70
13440;DHT22;6792;57.698;11.946;2023-06-10T08:16:17;24.20;27.60
13440;DHT22;6792;57.698;11.946;2023-06-10T08:18:47;24.20;27.50
13440;DHT22;6792;57.698;11.946;2023-06-10T08:21:17;24.30;27.40
13440;DHT22;6792;57.698;11.946;2023-06-10T08:23:47;24.40;26.80
13440;DHT22;6792;57.698;11.946;2023-06-10T08:26:19;24.40;26.50
13440;DHT22;6792;57.698;11.946;2023-06-10T08:28:48;24.50;26.90
13440;DHT22;6792;57.698;11.946;2023-06-10T08:31:17;24.50;26.70
13440;DHT22;6792;57.698;11.946;2023-06-10T08:33:50;24.60;26.70
13440;DHT22;6792;57.698;11.946;2023-06-10T08:36:19;24.60;26.60
13440;DHT22;6792;57.698;11.946;2023-06-10T08:38:48;24.60;26.60
13440;DHT22;6792;57.698;11.946;2023-06-10T08:41:18;24.60;26.60
13440;DHT22;6792;57.698;11.946;2023-06-10T08:43:53;24.70;26.60
13440;DHT22;6792;57.698;11.946;2023-06-10T08:46:22;24.70;26.50
13440;DHT22;6792;57.698;11.946;2023-06-10T08:48:53;24.70;26.50
13440;DHT22;6792;57.698;11.946;2023-06-10T08:51:24;24.70;26.40
13440;DHT22;6792;57.698;11.946;2023-06-10T08:53:58;24.80;26.30
13440;DHT22;6792;57.698;11.946;2023-06-10T08:56:29;24.80;26.30
13440;DHT22;6792;57.698;11.946;2023-06-10T08:58:59;24.80;26.20
13440;DHT22;6792;57.698;11.946;2023-06-10T09:01:28;24.80;26.30
13440;DHT22;6792;57.698;11.946;2023-06-10T09:03:58;24.80;26.30
13440;DHT22;6792;57.698;11.946;2023-06-10T09:06:28;24.90;26.30
13440;DHT22;6792;57.698;11.946;2023-06-10T09:08:58;25.00;26.40
13440;DHT22;6792;57.698;11.946;2023-06-10T09:11:28;25.00;26.30
13440;DHT22;6792;57.698;11.946;2023-06-10T09:13:57;25.00;26.10
13440;DHT22;6792;57.698;11.946;2023-06-10T09:16:26;25.10;26.00
13440;DHT22;6792;57.698;11.946;2023-06-10T09:18:56;25.10;25.90
13440;DHT22;6792;57.698;11.946;2023-06-10T09:21:27;25.10;25.80
13440;DHT22;6792;57.698;11.946;2023-06-10T09:23:57;25.10;25.80
13440;DHT22;6792;57.698;11.946;2023-06-10T09:26:30;25.20;25.50
13440;DHT22;6792;57.698;11.946;2023-06-10T09:29:03;25.20;25.90
13440;DHT22;6792;57.698;11.946;2023-06-10T09:31:35;25.30;25.90
13440;DHT22;6792;57.698;11.946;2023-06-10T09:34:08;25.30;25.80
13440;DHT22;6792;57.698;11.946;2023-06-10T09:36:38;25.40;25.30
13440;DHT22;6792;57.698;11.946;2023-06-10T09:39:14;25.40;25.60
13440;DHT22;6792;57.698;11.946;2023-06-10T09:41:44;25.40;25.00
13440;DHT22;6792;57.698;11.946;2023-06-10T09:44:15;25.50;25.00
13440;DHT22;6792;57.698;11.946;2023-06-10T09:46:49;25.60;24.90
13440;DHT22;6792;57.698;11.946;2023-06-10T09:49:18;25.60;25.30
13440;DHT22;6792;57.698;11.946;2023-06-10T09:51:51;25.60;25.10
13440;DHT22;6792;57.698;11.946;2023-06-10T09:54:21;25.70;25.10
13440;DHT22;6792;57.698;11.946;2023-06-10T09:56:52;25.70;25.00
13440;DHT22;6792;57.698;11.946;2023-06-10T09:59:30;25.80;25.00
13440;DHT22;6792;57.698;11.946;2023-06-10T10:02:00;25.80;24.40
13440;DHT22;6792;57.698;11.946;2023-06-10T10:04:29;25.80;24.80
13440;DHT22;6792;57.698;11.946;2023-06-10T10:06:58;25.80;24.30
13440;DHT22;6792;57.698;11.946;2023-06-10T10:09:27;25.90;24.80
13440;DHT22;6792;57.698;11.946;2023-06-10T10:11:57;26.00;24.30
13440;DHT22;6792;57.698;11.946;2023-06-10T10:14:29;26.00;24.30
13440;DHT22;6792;57.698;11.946;2023-06-10T10:17:01;26.10;24.30
13440;DHT22;6792;57.698;11.946;2023-06-10T10:19:32;26.10;24.30
13440;DHT22;6792;57.698;11.946;2023-06-10T10:22:06;26.20;24.30
13440;DHT22;6792;57.698;11.946;2023-06-10T10:24:41;26.20;24.30
13440;DHT22;6792;57.698;11.946;2023-06-10T10:29:53;26.20;24.10
13440;DHT22;6792;57.698;11.946;2023-06-10T10:32:26;26.30;24.10
13440;DHT22;6792;57.698;11.946;2023-06-10T10:34:58;26.30;24.50
13440;DHT22;6792;57.698;11.946;2023-06-10T10:37:29;26.30;24.50
13440;DHT22;6792;57.698;11.946;2023-06-10T10:39:59;26.40;24.50
13440;DHT22;6792;57.698;11.946;2023-06-10T10:42:29;26.50;24.00
13440;DHT22;6792;57.698;11.946;2023-06-10T10:44:59;26.50;24.30
13440;DHT22;6792;57.698;11.946;2023-06-10T10:47:29;26.50;23.80
13440;DHT22;6792;57.698;11.946;2023-06-10T10:50:00;26.50;23.70
13440;DHT22;6792;57.698;11.946;2023-06-10T10:52:46;26.60;24.20
13440;DHT22;6792;57.698;11.946;2023-06-10T10:55:03;26.70;23.60
13440;DHT22;6792;57.698;11.946;2023-06-10T10:57:37;26.70;23.50
13440;DHT22;6792;57.698;11.946;2023-06-10T11:00:11;26.80;23.50
13440;DHT22;6792;57.698;11.946;2023-06-10T11:02:45;26.80;23.90
13440;DHT22;6792;57.698;11.946;2023-06-10T11:05:30;26.90;23.40
13440;DHT22;6792;57.698;11.946;2023-06-10T11:07:55;26.90;23.80
13440;DHT22;6792;57.698;11.946;2023-06-10T11:10:31;26.90;23.20
13440;DHT22;6792;57.698;11.946;2023-06-10T11:13:02;26.90;23.70
13440;DHT22;6792;57.698;11.946;2023-06-10T11:15:31;27.00;23.30
13440;DHT22;6792;57.698;11.946;2023-06-10T11:18:12;27.10;23.80
13440;DHT22;6792;57.698;11.946;2023-06-10T11:20:59;27.10;23.80
13440;DHT22;6792;57.698;11.946;2023-06-10T11:23:38;27.20;23.80
13440;DHT22;6792;57.698;11.946;2023-06-10T11:26:16;27.30;23.80
13440;DHT22;6792;57.698;11.946;2023-06-10T11:29:08;27.40;23.80
13440;DHT22;6792;57.698;11.946;2023-06-10T11:31:44;27.50;23.70
13440;DHT22;6792;57.698;11.946;2023-06-10T11:34:14;27.60;23.50
13440;DHT22;6792;57.698;11.946;2023-06-10T11:36:44;27.80;23.40
13440;DHT22;6792;57.698;11.946;2023-06-10T11:39:19;27.90;22.90
13440;DHT22;6792;57.698;11.946;2023-06-10T11:41:48;28.00;23.20
13440;DHT22;6792;57.698;11.946;2023-06-10T11:44:20;28.10;23.10
13440;DHT22;6792;57.698;11.946;2023-06-10T11:46:50;28.20;23.00
13440;DHT22;6792;57.698;11.946;2023-06-10T11:49:21;28.20;22.80
13440;DHT22;6792;57.698;11.946;2023-06-10T11:51:52;28.30;22.70
13440;DHT22;6792;57.698;11.946;2023-06-10T11:54:21;28.40;22.70
13440;DHT22;6792;57.698;11.946;2023-06-10T11:56:56;28.50;22.60
13440;DHT22;6792;57.698;11.946;2023-06-10T11:59:26;28.70;22.70
13440;DHT22;6792;57.698;11.946;2023-06-10T12:01:56;28.70;22.60
13440;DHT22;6792;57.698;11.946;2023-06-10T12:04:25;28.80;22.70
13440;DHT22;6792;57.698;11.946;2023-06-10T12:06:56;29.00;22.70
13440;DHT22;6792;57.698;11.946;2023-06-10T12:09:29;29.10;22.60
13440;DHT22;6792;57.698;11.946;2023-06-10T12:12:02;29.20;22.50
13440;DHT22;6792;57.698;11.946;2023-06-10T12:14:52;29.30;22.40
13440;DHT22;6792;57.698;11.946;2023-06-10T12:17:23;29.50;21.70
13440;DHT22;6792;57.698;11.946;2023-06-10T12:19:53;29.50;22.20
13440;DHT22;6792;57.698;11.946;2023-06-10T12:22:22;29.60;22.10
13440;DHT22;6792;57.698;11.946;2023-06-10T12:24:59;29.70;22.00
13440;DHT22;6792;57.698;11.946;2023-06-10T12:27:29;29.80;22.00
13440;DHT22;6792;57.698;11.946;2023-06-10T12:29:59;29.90;21.90
13440;DHT22;6792;57.698;11.946;2023-06-10T12:32:38;30.10;21.90
13440;DHT22;6792;57.698;11.946;2023-06-10T12:35:09;30.30;21.30
13440;DHT22;6792;57.698;11.946;2023-06-10T12:37:39;30.40;21.70
13440;DHT22;6792;57.698;11.946;2023-06-10T12:40:10;30.50;21.60
13440;DHT22;6792;57.698;11.946;2023-06-10T12:42:40;30.70;21.50
13440;DHT22;6792;57.698;11.946;2023-06-10T12:45:10;30.90;21.30
13440;DHT22;6792;57.698;11.946;2023-06-10T12:47:40;31.00;21.20
13440;DHT22;6792;57.698;11.946;2023-06-10T12:50:10;31.30;21.20
13440;DHT22;6792;57.698;11.946;2023-06-10T12:52:40;31.50;21.10
13440;DHT22;6792;57.698;11.946;2023-06-10T12:55:11;31.70;20.80
13440;DHT22;6792;57.698;11.946;2023-06-10T12:57:49;31.90;20.60
13440;DHT22;6792;57.698;11.946;2023-06-10T13:00:19;32.00;20.50
13440;DHT22;6792;57.698;11.946;2023-06-10T13:02:50;32.20;20.30
13440;DHT22;6792;57.698;11.946;2023-06-10T13:05:19;32.40;20.10
13440;DHT22;6792;57.698;11.946;2023-06-10T13:07:49;32.50;19.50
13440;DHT22;6792;57.698;11.946;2023-06-10T13:10:18;32.70;20.30
13440;DHT22;6792;57.698;11.946;2023-06-10T13:12:48;32.90;19.70
13440;DHT22;6792;57.698;11.946;2023-06-10T13:15:18;33.10;19.60
13440;DHT22;6792;57.698;11.946;2023-06-10T13:17:47;33.30;19.50
13440;DHT22;6792;57.698;11.946;2023-06-10T13:20:19;33.50;19.40
13440;DHT22;6792;57.698;11.946;2023-06-10T13:22:49;33.70;19.20
13440;DHT22;6792;57.698;11.946;2023-06-10T13:25:19;33.90;18.60
13440;DHT22;6792;57.698;11.946;2023-06-10T13:27:48;34.10;19.00
13440;DHT22;6792;57.698;11.946;2023-06-10T13:30:17;34.30;18.90
13440;DHT22;6792;57.698;11.946;2023-06-10T13:32:47;34.50;18.20
13440;DHT22;6792;57.698;11.946;2023-06-10T13:35:17;34.60;18.50
13440;DHT22;6792;57.698;11.946;2023-06-10T13:37:46;34.70;18.40
13440;DHT22;6792;57.698;11.946;2023-06-10T13:40:15;34.90;18.50
13440;DHT22;6792;57.698;11.946;2023-06-10T13:42:46;35.30;18.40
13440;DHT22;6792;57.698;11.946;2023-06-10T13:45:18;35.70;18.40
13440;DHT22;6792;57.698;11.946;2023-06-10T13:47:48;36.20;18.70
13440;DHT22;6792;57.698;11.946;2023-06-10T13:50:20;36.60;18.20
13440;DHT22;6792;57.698;11.946;2023-06-10T13:52:49;37.10;18.10
13440;DHT22;6792;57.698;11.946;2023-06-10T13:55:18;37.50;17.80
13440;DHT22;6792;57.698;11.946;2023-06-10T13:57:48;38.00;17.60
13440;DHT22;6792;57.698;11.946;2023-06-10T14:00:18;38.70;17.60
13440;DHT22;6792;57.698;11.946;2023-06-10T14:02:48;39.40;17.30
13440;DHT22;6792;57.698;11.946;2023-06-10T14:05:17;40.20;17.00
13440;DHT22;6792;57.698;11.946;2023-06-10T14:07:49;40.80;16.20
13440;DHT22;6792;57.698;11.946;2023-06-10T14:10:18;41.50;16.40
13440;DHT22;6792;57.698;11.946;2023-06-10T14:12:50;42.00;16.00
13440;DHT22;6792;57.698;11.946;2023-06-10T14:15:19;42.40;15.80
13440;DHT22;6792;57.698;11.946;2023-06-10T14:17:48;42.70;15.50
13440;DHT22;6792;57.698;11.946;2023-06-10T14:20:18;42.70;15.20
13440;DHT22;6792;57.698;11.946;2023-06-10T14:22:47;42.70;15.00
13440;DHT22;6792;57.698;11.946;2023-06-10T14:25:18;42.40;14.70
13440;DHT22;6792;57.698;11.946;2023-06-10T14:27:47;42.00;14.50
13440;DHT22;6792;57.698;11.946;2023-06-10T14:30:19;41.60;14.50
13440;DHT22;6792;57.698;11.946;2023-06-10T14:32:48;41.00;14.00
13440;DHT22;6792;57.698;11.946;2023-06-10T14:35:20;40.60;14.60
13440;DHT22;6792;57.698;11.946;2023-06-10T14:37:49;40.10;14.60
13440;DHT22;6792;57.698;11.946;2023-06-10T14:40:19;39.60;14.70
13440;DHT22;6792;57.698;11.946;2023-06-10T14:42:49;39.10;14.60
13440;DHT22;6792;57.698;11.946;2023-06-10T14:45:18;38.60;14.70
13440;DHT22;6792;57.698;11.946;2023-06-10T14:47:47;38.20;14.90
13440;DHT22;6792;57.698;11.946;2023-06-10T14:50:18;37.80;14.90
13440;DHT22;6792;57.698;11.946;2023-06-10T14:52:48;37.40;14.80
13440;DHT22;6792;57.698;11.946;2023-06-10T14:55:20;37.00;15.60
13440;DHT22;6792;57.698;11.946;2023-06-10T14:57:50;36.60;15.40
13440;DHT22;6792;57.698;11.946;2023-06-10T15:00:20;36.20;16.10
13440;DHT22;6792;57.698;11.946;2023-06-10T15:02:51;35.80;16.50
13440;DHT22;6792;57.698;11.946;2023-06-10T15:05:21;35.50;16.90
13440;DHT22;6792;57.698;11.946;2023-06-10T15:07:50;35.20;17.20
13440;DHT22;6792;57.698;11.946;2023-06-10T15:10:19;34.90;17.40
13440;DHT22;6792;57.698;11.946;2023-06-10T15:12:49;34.70;17.80
13440;DHT22;6792;57.698;11.946;2023-06-10T15:15:20;34.40;18.20
13440;DHT22;6792;57.698;11.946;2023-06-10T15:17:50;34.20;18.40
13440;DHT22;6792;57.698;11.946;2023-06-10T15:20:19;34.00;18.70
13440;DHT22;6792;57.698;11.946;2023-06-10T15:22:48;33.70;18.80
13440;DHT22;6792;57.698;11.946;2023-06-10T15:25:18;33.50;19.10
13440;DHT22;6792;57.698;11.946;2023-06-10T15:27:47;33.20;19.80
13440;DHT22;6792;57.698;11.946;2023-06-10T15:30:16;33.00;19.50
13440;DHT22;6792;57.698;11.946;2023-06-10T15:32:48;32.80;19.70
13440;DHT22;6792;57.698;11.946;2023-06-10T15:35:18;32.70;20.00
13440;DHT22;6792;57.698;11.946;2023-06-10T15:37:50;32.50;20.10
13440;DHT22;6792;57.698;11.946;2023-06-10T15:40:19;32.40;20.80
13440;DHT22;6792;57.698;11.946;2023-06-10T15:42:49;32.20;20.50
13440;DHT22;6792;57.698;11.946;2023-06-10T15:45:18;32.10;20.60
13440;DHT22;6792;57.698;11.946;2023-06-10T15:47:47;31.90;20.80
13440;DHT22;6792;57.698;11.946;2023-06-10T15:50:17;31.70;20.90
13440;DHT22;6792;57.698;11.946;2023-06-10T15:52:46;31.50;20.90